AFR24T LFBP-LSGG
Flight info
| Callsign | AFR24T |
|---|---|
| Flight time | N/A |
| Altitude | 30000 |
| Route | USAKU DCT LMT DCT SOTAK DCT TLB DCT GOSAD DCT DITEV DCT MEN DCT NINUN UN871 LTP UZ116 BELUS |
| Aircraft | E190/M-SDE3GILORVW/S |
Departure
| Time | 2026-05-01 13:33 |
|---|---|
| Airport | Pau Pyrénées Airport (LFBP) |
Arrival
| Time | N/A |
|---|---|
| Airport | Geneva International Airport (LSGG) |
| Time | Latitude | Longitude | Altitude | Speed | Heading |
|---|---|---|---|---|---|
| 2026-05-01 13:32 | 43.41065 | -0.15851 | 9050 ft | 291 kts | 62° |
| 2026-05-01 13:33 | 43.44121 | -0.08223 | 10841 ft | 325 kts | 63° |
| 2026-05-01 13:33 | 43.46340 | -0.02708 | 12448 ft | 332 kts | 65° |
| 2026-05-01 13:34 | 43.48284 | 0.03131 | 13958 ft | 341 kts | 68° |
| 2026-05-01 13:34 | 43.50231 | 0.09166 | 15315 ft | 347 kts | 68° |
| 2026-05-01 13:35 | 43.52214 | 0.15318 | 16640 ft | 354 kts | 68° |
| 2026-05-01 13:35 | 43.53207 | 0.18388 | 17296 ft | 357 kts | 67° |
| 2026-05-01 13:35 | 43.55239 | 0.24722 | 18756 ft | 364 kts | 68° |
| 2026-05-01 13:36 | 43.56258 | 0.27912 | 19375 ft | 368 kts | 67° |
| 2026-05-01 13:36 | 43.57297 | 0.31160 | 20011 ft | 373 kts | 67° |
| 2026-05-01 13:36 | 43.59416 | 0.37799 | 21294 ft | 382 kts | 68° |
| 2026-05-01 13:37 | 43.60479 | 0.41130 | 21840 ft | 385 kts | 67° |
| 2026-05-01 13:37 | 43.61687 | 0.44472 | 22339 ft | 390 kts | 60° |
| 2026-05-01 13:37 | 43.63179 | 0.47628 | 22841 ft | 394 kts | 55° |
| 2026-05-01 13:37 | 43.64911 | 0.50605 | 23315 ft | 398 kts | 46° |
| 2026-05-01 13:38 | 43.68781 | 0.56135 | 24212 ft | 404 kts | 46° |
| 2026-05-01 13:38 | 43.70566 | 0.59162 | 24616 ft | 407 kts | 56° |
| 2026-05-01 13:38 | 43.72075 | 0.62431 | 25051 ft | 409 kts | 59° |
| 2026-05-01 13:39 | 43.73433 | 0.65910 | 25483 ft | 411 kts | 66° |
| 2026-05-01 13:39 | 43.74588 | 0.69556 | 25916 ft | 414 kts | 67° |
| 2026-05-01 13:39 | 43.75739 | 0.73245 | 26333 ft | 417 kts | 68° |
| 2026-05-01 13:39 | 43.76859 | 0.76893 | 26731 ft | 420 kts | 68° |
| 2026-05-01 13:40 | 43.78003 | 0.80633 | 27112 ft | 422 kts | 68° |
| 2026-05-01 13:40 | 43.79154 | 0.84398 | 27485 ft | 425 kts | 68° |
| 2026-05-01 13:40 | 43.80311 | 0.88186 | 27847 ft | 427 kts | 68° |